createdAt,value
2019-05-01T00:01:00.250Z,101452.80
2019-05-01T00:03:30.242Z,101445.32
2019-05-01T00:06:01.511Z,101439.36
2019-05-01T00:08:31.259Z,101440.23
2019-05-01T00:11:00.960Z,101430.53
2019-05-01T00:13:30.712Z,101426.66
2019-05-01T00:16:00.696Z,101428.61
2019-05-01T00:18:31.426Z,101433.03
2019-05-01T00:21:01.075Z,101430.96
2019-05-01T00:23:30.843Z,101430.67
2019-05-01T00:26:00.712Z,101419.60
2019-05-01T00:28:30.449Z,101424.83
2019-05-01T00:31:00.563Z,101414.67
2019-05-01T00:33:32.223Z,101412.16
2019-05-01T00:36:01.939Z,101406.19
2019-05-01T00:38:31.468Z,101408.22
2019-05-01T00:41:01.330Z,101408.70
2019-05-01T00:43:30.988Z,101401.78
2019-05-01T00:46:00.834Z,101398.02
2019-05-01T00:48:30.566Z,101395.23
2019-05-01T00:51:00.296Z,101391.03
2019-05-01T00:53:30.071Z,101383.86
2019-05-01T00:56:17.737Z,101384.43
2019-05-01T00:58:47.180Z,101393.58
2019-05-01T01:01:34.150Z,101380.67
2019-05-01T01:04:04.698Z,101386.60
2019-05-01T01:06:34.497Z,101386.40
2019-05-01T01:09:06.849Z,101384.31
2019-05-01T01:11:36.516Z,101386.91
2019-05-01T01:14:07.188Z,101388.45
2019-05-01T01:16:37.277Z,101384.02
2019-05-01T01:19:07.012Z,101381.00
2019-05-01T01:21:36.641Z,101380.69
2019-05-01T01:24:06.688Z,101377.28
2019-05-01T01:26:36.425Z,101371.14
2019-05-01T01:29:06.113Z,101371.15
2019-05-01T01:31:35.922Z,101370.98
2019-05-01T01:34:06.122Z,101368.59
2019-05-01T01:36:35.840Z,101371.96
2019-05-01T01:39:07.658Z,101364.66
2019-05-01T01:41:37.449Z,101367.28
2019-05-01T01:44:09.156Z,101360.98
2019-05-01T01:46:40.529Z,101367.82
2019-05-01T01:49:10.389Z,101361.12
2019-05-01T01:51:40.066Z,101356.39
2019-05-01T01:54:14.401Z,101356.11
2019-05-01T01:56:45.696Z,101348.06
2019-05-01T01:59:18.565Z,101354.98
2019-05-01T02:01:52.701Z,101352.69
2019-05-01T02:04:40.155Z,101350.52
2019-05-01T02:07:09.821Z,101350.64
2019-05-01T02:09:39.566Z,101344.48
2019-05-01T02:12:09.592Z,101343.27
2019-05-01T02:14:39.280Z,101337.60
2019-05-01T02:17:08.840Z,101335.66
2019-05-01T02:19:38.659Z,101336.79
2019-05-01T02:22:08.226Z,101333.75
2019-05-01T02:24:37.999Z,101333.13
2019-05-01T02:27:15.405Z,101326.33
2019-05-01T02:29:50.306Z,101321.81
2019-05-01T02:32:22.273Z,101321.56
2019-05-01T02:34:53.522Z,101322.02
2019-05-01T02:37:25.896Z,101324.43
2019-05-01T02:39:57.687Z,101323.20
2019-05-01T02:42:30.294Z,101323.20
2019-05-01T02:45:04.277Z,101316.77
2019-05-01T02:47:36.824Z,101315.15
2019-05-01T02:50:12.133Z,101314.47
2019-05-01T02:52:44.669Z,101315.86
2019-05-01T02:55:25.301Z,101311.48
2019-05-01T02:57:55.575Z,101318.66
2019-05-01T03:00:26.418Z,101313.95
2019-05-01T03:02:56.589Z,101312.86
2019-05-01T03:05:26.323Z,101317.63
2019-05-01T03:07:56.118Z,101311.85
2019-05-01T03:10:25.847Z,101307.06
2019-05-01T03:12:58.311Z,101311.08
2019-05-01T03:15:31.265Z,101309.98
2019-05-01T03:18:04.557Z,101304.02
2019-05-01T03:20:38.404Z,101304.52
2019-05-01T03:23:16.528Z,101302.34
2019-05-01T03:25:46.229Z,101302.08
2019-05-01T03:28:16.197Z,101299.81
2019-05-01T03:30:45.912Z,101300.75
2019-05-01T03:33:15.573Z,101292.67
2019-05-01T03:35:45.331Z,101290.17
2019-05-01T03:38:15.289Z,101294.91
2019-05-01T03:40:45.061Z,101298.31
2019-05-01T03:43:14.756Z,101293.34
2019-05-01T03:45:45.226Z,101295.92
2019-05-01T03:48:14.992Z,101290.91
2019-05-01T03:50:47.185Z,101297.13
2019-05-01T03:53:16.862Z,101296.23
2019-05-01T03:55:46.773Z,101289.92
2019-05-01T03:58:16.615Z,101293.75
2019-05-01T04:00:47.920Z,101286.39
2019-05-01T04:03:24.820Z,101289.95
2019-05-01T04:05:55.028Z,101289.62
2019-05-01T04:08:25.663Z,101293.00
2019-05-01T04:10:56.645Z,101291.62
2019-05-01T04:13:26.486Z,101295.22
2019-05-01T04:15:57.244Z,101293.58
2019-05-01T04:18:27.919Z,101293.14
2019-05-01T04:20:57.861Z,101296.73
2019-05-01T04:23:27.652Z,101296.33
2019-05-01T04:25:57.435Z,101290.98
2019-05-01T04:28:30.298Z,101287.60
2019-05-01T04:31:17.937Z,101285.91
2019-05-01T04:33:52.126Z,101291.09
2019-05-01T04:36:23.840Z,101289.31
2019-05-01T04:38:53.918Z,101291.78
2019-05-01T04:41:23.644Z,101285.75
2019-05-01T04:43:53.539Z,101282.36
2019-05-01T04:46:23.840Z,101290.39
2019-05-01T04:48:54.133Z,101288.61
2019-05-01T04:51:23.803Z,101293.81
2019-05-01T04:53:53.509Z,101292.75
2019-05-01T04:56:23.868Z,101286.54
2019-05-01T04:58:54.042Z,101292.52
2019-05-01T05:01:24.062Z,101291.09
2019-05-01T05:03:54.089Z,101288.22
2019-05-01T05:06:23.981Z,101294.91
2019-05-01T05:08:53.934Z,101295.59
2019-05-01T05:11:25.505Z,101287.33
2019-05-01T05:14:08.986Z,101286.07
2019-05-01T05:16:55.652Z,101284.25
2019-05-01T05:19:25.419Z,101282.22
2019-05-01T05:21:55.333Z,101286.52
2019-05-01T05:24:25.198Z,101283.84
2019-05-01T05:26:55.553Z,101283.33
2019-05-01T05:29:26.609Z,101286.91
2019-05-01T05:31:58.381Z,101291.36
2019-05-01T05:34:28.438Z,101288.70
2019-05-01T05:37:01.254Z,101288.32
2019-05-01T05:39:43.203Z,101289.00
2019-05-01T05:42:14.331Z,101290.44
2019-05-01T05:44:46.285Z,101283.64
2019-05-01T05:47:16.457Z,101289.86
2019-05-01T05:49:46.733Z,101291.95
2019-05-01T05:52:37.537Z,101284.16
2019-05-01T05:55:27.755Z,101280.22
2019-05-01T05:58:01.511Z,101285.69
2019-05-01T06:00:43.073Z,101280.56
2019-05-01T06:03:35.185Z,101284.93
2019-05-01T06:06:12.349Z,101279.38
2019-05-01T06:08:44.685Z,101278.66
2019-05-01T06:11:21.743Z,101283.66
2019-05-01T06:13:58.780Z,101284.03
2019-05-01T06:16:35.887Z,101286.44
2019-05-01T06:19:14.567Z,101285.66
2019-05-01T06:21:43.985Z,101285.88
2019-05-01T06:24:18.224Z,101287.87
2019-05-01T06:26:48.190Z,101281.79
2019-05-01T06:29:18.038Z,101280.52
2019-05-01T06:31:47.847Z,101275.42
2019-05-01T06:34:17.656Z,101279.48
2019-05-01T06:36:49.612Z,101285.91
2019-05-01T06:39:19.083Z,101278.89
2019-05-01T06:41:49.206Z,101282.90
2019-05-01T06:44:20.845Z,101276.17
2019-05-01T06:47:09.253Z,101289.54
2019-05-01T06:49:44.842Z,101282.87
2019-05-01T06:52:17.172Z,101282.83
2019-05-01T06:54:47.791Z,101282.11
2019-05-01T06:57:18.575Z,101282.82
2019-05-01T06:59:49.670Z,101276.67
2019-05-01T07:02:19.911Z,101286.96
2019-05-01T07:04:51.205Z,101277.89
2019-05-01T07:07:25.898Z,101272.88
2019-05-01T07:09:56.404Z,101274.34
2019-05-01T07:12:31.409Z,101278.71
2019-05-01T07:15:02.439Z,101269.89
2019-05-01T07:17:32.338Z,101274.02
2019-05-01T07:20:11.955Z,101275.87
2019-05-01T07:22:42.216Z,101267.33
2019-05-01T07:25:12.569Z,101271.79
2019-05-01T07:27:42.413Z,101270.44
2019-05-01T07:30:19.605Z,101270.97
2019-05-01T07:32:48.474Z,101259.59
2019-05-01T07:35:18.640Z,101264.00
2019-05-01T07:37:48.494Z,101258.58
2019-05-01T07:40:20.787Z,101266.39
2019-05-01T07:42:54.268Z,101264.02
2019-05-01T07:45:38.977Z,101265.02
2019-05-01T07:48:07.008Z,101260.75
2019-05-01T07:50:37.041Z,101261.75
2019-05-01T07:53:07.110Z,101261.08
2019-05-01T07:55:38.841Z,101264.35
2019-05-01T07:58:16.023Z,101266.19
2019-05-01T08:00:48.257Z,101272.17
2019-05-01T08:03:17.936Z,101263.98
2019-05-01T08:05:47.696Z,101269.30
2019-05-01T08:08:17.664Z,101265.23
2019-05-01T08:10:47.436Z,101271.77
2019-05-01T08:13:17.539Z,101278.78
2019-05-01T08:15:47.385Z,101266.68
2019-05-01T08:18:18.690Z,101265.67
2019-05-01T08:20:53.116Z,101274.19
2019-05-01T08:23:23.241Z,101268.07
2019-05-01T08:25:52.895Z,101275.88
2019-05-01T08:28:40.191Z,101266.35
2019-05-01T08:31:29.704Z,101269.27
2019-05-01T08:34:06.981Z,101275.14
2019-05-01T08:36:36.675Z,101268.30
2019-05-01T08:39:09.140Z,101272.66
2019-05-01T08:41:40.155Z,101267.56
2019-05-01T08:44:09.899Z,101265.38
2019-05-01T08:46:53.323Z,101272.80
2019-05-01T08:49:29.077Z,101270.09
2019-05-01T08:51:58.953Z,101268.25
2019-05-01T08:54:33.160Z,101265.55
2019-05-01T08:57:00.148Z,101267.77
2019-05-01T08:59:31.571Z,101269.66
2019-05-01T09:02:09.355Z,101267.75
2019-05-01T09:04:32.940Z,101266.03
2019-05-01T09:07:02.648Z,101268.81
2019-05-01T09:09:33.438Z,101264.72
2019-05-01T09:12:06.960Z,101276.87
2019-05-01T09:14:36.859Z,101268.76
2019-05-01T09:17:06.712Z,101266.31
2019-05-01T09:19:36.416Z,101259.57
2019-05-01T09:22:07.660Z,101264.48
2019-05-01T09:24:37.381Z,101268.92
2019-05-01T09:27:09.815Z,101263.20
2019-05-01T09:29:41.379Z,101267.05
2019-05-01T09:32:11.985Z,101257.84
2019-05-01T09:34:49.037Z,101258.41
2019-05-01T09:37:18.741Z,101256.83
2019-05-01T09:39:48.404Z,101256.55
2019-05-01T09:42:23.513Z,101255.89
2019-05-01T09:44:49.644Z,101251.88
2019-05-01T09:47:19.737Z,101250.30
2019-05-01T09:49:54.036Z,101251.88
2019-05-01T09:52:24.577Z,101252.89
2019-05-01T09:55:08.110Z,101249.08
2019-05-01T09:57:41.420Z,101246.58
2019-05-01T10:00:10.985Z,101249.55
2019-05-01T10:02:42.137Z,101239.05
2019-05-01T10:05:12.261Z,101247.34
2019-05-01T10:07:42.077Z,101247.84
2019-05-01T10:10:12.288Z,101241.20
2019-05-01T10:12:47.028Z,101246.45
2019-05-01T10:15:14.429Z,101248.56
2019-05-01T10:17:44.268Z,101236.47
2019-05-01T10:20:15.010Z,101243.87
2019-05-01T10:22:45.302Z,101235.41
2019-05-01T10:25:15.743Z,101234.08
2019-05-01T10:27:52.761Z,101229.45
2019-05-01T10:30:25.793Z,101222.36
2019-05-01T10:33:03.012Z,101221.17
2019-05-01T10:35:42.709Z,101223.47
2019-05-01T10:38:09.471Z,101226.57
2019-05-01T10:40:39.919Z,101218.14
2019-05-01T10:43:12.881Z,101215.33
2019-05-01T10:45:42.643Z,101216.22
2019-05-01T10:48:12.407Z,101216.15
2019-05-01T10:50:42.211Z,101215.41
2019-05-01T10:53:11.911Z,101221.43
2019-05-01T10:55:41.558Z,101217.52
2019-05-01T10:58:12.688Z,101218.45
2019-05-01T11:00:44.428Z,101212.46
2019-05-01T11:03:14.578Z,101219.80
2019-05-01T11:05:55.582Z,101203.77
2019-05-01T11:08:18.230Z,101209.18
2019-05-01T11:10:48.061Z,101197.22
2019-05-01T11:13:17.944Z,101201.64
2019-05-01T11:15:48.058Z,101189.77
2019-05-01T11:18:17.820Z,101182.66
2019-05-01T11:20:48.118Z,101191.20
2019-05-01T11:23:23.276Z,101191.94
2019-05-01T11:25:52.364Z,101198.45
2019-05-01T11:28:22.115Z,101197.70
2019-05-01T11:30:51.979Z,101183.72
2019-05-01T11:33:29.190Z,101185.19
2019-05-01T11:36:09.216Z,101178.39
2019-05-01T11:38:37.515Z,101179.77
2019-05-01T11:41:08.897Z,101182.83
2019-05-01T11:43:38.641Z,101172.86
2019-05-01T11:46:08.631Z,101174.40
2019-05-01T11:48:38.350Z,101172.17
2019-05-01T11:51:08.521Z,101171.58
2019-05-01T11:53:40.316Z,101171.67
2019-05-01T11:56:10.259Z,101166.30
2019-05-01T11:58:40.170Z,101168.31
2019-05-01T12:01:11.588Z,101183.73
2019-05-01T12:03:41.369Z,101178.53
2019-05-01T12:06:22.315Z,101176.48
2019-05-01T12:08:42.519Z,101178.79
2019-05-01T12:11:13.469Z,101180.20
2019-05-01T12:13:44.217Z,101161.12
2019-05-01T12:16:16.208Z,101168.11
2019-05-01T12:18:46.164Z,101164.62
2019-05-01T12:21:16.114Z,101154.81
2019-05-01T12:23:46.079Z,101161.20
2019-05-01T12:26:15.799Z,101152.66
2019-05-01T12:28:45.577Z,101158.19
2019-05-01T12:31:16.263Z,101163.73
2019-05-01T12:33:46.760Z,101155.67
2019-05-01T12:36:16.787Z,101143.74
2019-05-01T12:39:06.305Z,101149.44
2019-05-01T12:41:37.790Z,101154.98
2019-05-01T12:44:07.568Z,101150.54
2019-05-01T12:46:39.002Z,101141.81
2019-05-01T12:49:08.878Z,101131.17
2019-05-01T12:51:40.324Z,101133.36
2019-05-01T12:54:16.275Z,101131.45
2019-05-01T12:56:56.876Z,101140.98
2019-05-01T12:59:26.680Z,101142.45
2019-05-01T13:01:56.558Z,101129.66
2019-05-01T13:04:26.263Z,101131.00
2019-05-01T13:06:58.963Z,101137.58
2019-05-01T13:09:28.806Z,101132.55
2019-05-01T13:11:58.637Z,101127.78
2019-05-01T13:14:28.595Z,101130.75
2019-05-01T13:16:58.615Z,101119.09
2019-05-01T13:19:28.295Z,101118.30
2019-05-01T13:21:58.002Z,101117.70
2019-05-01T13:24:27.911Z,101124.61
2019-05-01T13:27:05.173Z,101117.96
2019-05-01T13:29:36.627Z,101108.30
2019-05-01T13:32:12.203Z,101102.52
2019-05-01T13:34:42.079Z,101103.86
2019-05-01T13:37:12.497Z,101105.38
2019-05-01T13:39:43.959Z,101090.89
2019-05-01T13:42:14.070Z,101077.08
2019-05-01T13:44:43.925Z,101089.98
2019-05-01T13:47:14.258Z,101086.69
2019-05-01T13:49:44.055Z,101076.88
2019-05-01T13:52:15.369Z,101074.42
2019-05-01T13:54:45.490Z,101068.41
2019-05-01T13:57:15.635Z,101072.05
2019-05-01T13:59:45.726Z,101065.02
2019-05-01T14:02:19.021Z,101064.77
2019-05-01T14:04:49.014Z,101064.80
2019-05-01T14:07:19.606Z,101058.52
2019-05-01T14:09:49.497Z,101046.73
2019-05-01T14:12:19.398Z,101044.80
2019-05-01T14:14:53.318Z,101045.11
2019-05-01T14:17:23.769Z,101050.87
2019-05-01T14:19:58.266Z,101040.05
2019-05-01T14:22:36.060Z,101050.21
2019-05-01T14:25:09.639Z,101043.31
2019-05-01T14:27:39.708Z,101044.34
2019-05-01T14:30:10.826Z,101035.83
2019-05-01T14:32:40.458Z,101045.58
2019-05-01T14:35:12.907Z,101039.66
2019-05-01T14:37:42.907Z,101028.72
2019-05-01T14:40:12.997Z,101034.53
2019-05-01T14:42:42.765Z,101039.50
2019-05-01T14:45:13.838Z,101037.30
2019-05-01T14:47:43.614Z,101035.61
2019-05-01T14:50:13.382Z,101038.03
2019-05-01T14:52:43.346Z,101039.83
2019-05-01T14:55:13.242Z,101034.95
2019-05-01T14:57:43.072Z,101039.62
2019-05-01T15:00:15.108Z,101038.58
2019-05-01T15:02:45.046Z,101036.22
2019-05-01T15:05:15.695Z,101030.75
2019-05-01T15:07:45.579Z,101024.95
2019-05-01T15:10:15.692Z,101019.98
2019-05-01T15:12:47.317Z,101023.19
2019-05-01T15:15:22.100Z,101019.23
2019-05-01T15:18:09.759Z,101017.97
2019-05-01T15:20:39.661Z,101012.17
2019-05-01T15:23:09.582Z,101015.86
2019-05-01T15:25:39.326Z,101014.17
2019-05-01T15:28:09.164Z,101004.36
2019-05-01T15:30:38.902Z,101012.27
2019-05-01T15:33:08.731Z,101002.73
2019-05-01T15:35:38.652Z,100995.19
2019-05-01T15:38:08.482Z,100998.05
2019-05-01T15:40:54.805Z,100992.00
2019-05-01T15:43:26.186Z,101002.42
2019-05-01T15:46:22.434Z,100985.45
2019-05-01T15:48:52.446Z,100981.67
2019-05-01T15:51:22.310Z,100989.36
2019-05-01T15:53:54.257Z,100987.98
2019-05-01T15:56:24.014Z,100985.14
2019-05-01T15:58:53.885Z,100983.64
2019-05-01T16:01:25.153Z,100976.83
2019-05-01T16:03:54.816Z,100971.41
2019-05-01T16:06:24.488Z,100971.41
2019-05-01T16:08:54.277Z,100976.05
2019-05-01T16:11:28.645Z,100968.75
2019-05-01T16:13:58.438Z,100981.36
2019-05-01T16:16:29.684Z,100982.49
2019-05-01T16:19:00.675Z,100984.36
2019-05-01T16:21:30.389Z,100977.69
2019-05-01T16:24:00.099Z,100969.85
2019-05-01T16:26:29.825Z,100973.84
2019-05-01T16:28:59.492Z,100977.37
2019-05-01T16:31:31.432Z,100970.14
2019-05-01T16:34:01.518Z,100969.88
2019-05-01T16:36:33.434Z,100979.30
2019-05-01T16:39:06.129Z,100970.52
2019-05-01T16:41:36.028Z,100970.75
2019-05-01T16:44:05.803Z,100958.28
2019-05-01T16:46:37.628Z,100968.36
2019-05-01T16:49:09.013Z,100960.47
2019-05-01T16:51:38.794Z,100959.71
2019-05-01T16:54:09.419Z,100965.59
2019-05-01T16:56:39.408Z,100964.47
2019-05-01T16:59:09.481Z,100962.34
2019-05-01T17:01:41.595Z,100962.87
2019-05-01T17:04:29.232Z,100968.22
2019-05-01T17:07:16.564Z,100956.29
2019-05-01T17:09:51.184Z,100957.33
2019-05-01T17:12:22.648Z,100956.84
2019-05-01T17:14:52.499Z,100958.75
2019-05-01T17:17:24.635Z,100957.70
2019-05-01T17:19:56.243Z,100965.84
2019-05-01T17:22:26.022Z,100958.45
2019-05-01T17:24:55.938Z,100957.12
2019-05-01T17:27:25.776Z,100947.34
2019-05-01T17:29:55.439Z,100957.31
2019-05-01T17:32:25.256Z,100953.81
2019-05-01T17:34:55.304Z,100948.44
2019-05-01T17:37:25.151Z,100948.49
2019-05-01T17:39:59.437Z,100948.47
2019-05-01T17:42:32.956Z,100947.08
2019-05-01T17:45:01.272Z,100941.03
2019-05-01T17:47:31.068Z,100944.39
2019-05-01T17:50:03.759Z,100940.34
2019-05-01T17:52:33.742Z,100937.14
2019-05-01T17:55:04.175Z,100939.56
2019-05-01T17:57:34.096Z,100932.66
2019-05-01T18:00:25.656Z,100933.05
2019-05-01T18:03:00.234Z,100930.84
2019-05-01T18:05:38.602Z,100936.81
2019-05-01T18:08:08.398Z,100934.70
2019-05-01T18:10:38.647Z,100936.11
2019-05-01T18:13:09.598Z,100937.89
2019-05-01T18:15:39.983Z,100939.07
2019-05-01T18:18:10.645Z,100937.04
2019-05-01T18:20:41.413Z,100943.65
2019-05-01T18:23:13.548Z,100941.15
2019-05-01T18:25:54.575Z,100942.80
2019-05-01T18:28:34.771Z,100937.52
2019-05-01T18:31:06.109Z,100941.60
2019-05-01T18:33:39.097Z,100940.27
2019-05-01T18:36:09.442Z,100937.55
2019-05-01T18:38:58.966Z,100938.36
2019-05-01T18:41:30.484Z,100943.84
2019-05-01T18:44:00.404Z,100937.47
2019-05-01T18:46:30.653Z,100932.77
2019-05-01T18:49:00.776Z,100935.16
2019-05-01T18:51:30.649Z,100935.66
2019-05-01T18:54:03.354Z,100935.77
2019-05-01T18:56:38.104Z,100938.58
2019-05-01T18:59:05.588Z,100932.44
2019-05-01T19:01:35.543Z,100937.45
2019-05-01T19:04:07.146Z,100929.53
2019-05-01T19:06:41.274Z,100935.55
2019-05-01T19:09:15.069Z,100927.45
2019-05-01T19:11:43.382Z,100934.49
2019-05-01T19:14:13.400Z,100938.02
2019-05-01T19:16:45.369Z,100930.98
2019-05-01T19:19:16.520Z,100922.78
2019-05-01T19:21:48.380Z,100926.62
2019-05-01T19:24:20.524Z,100925.73
2019-05-01T19:26:51.216Z,100928.37
2019-05-01T19:29:20.997Z,100924.63
2019-05-01T19:31:50.690Z,100919.10
2019-05-01T19:34:21.119Z,100920.86
2019-05-01T19:36:51.579Z,100915.02
2019-05-01T19:39:21.694Z,100913.34
2019-05-01T19:41:54.554Z,100911.68
2019-05-01T19:44:24.059Z,100913.73
2019-05-01T19:46:53.837Z,100901.42
2019-05-01T19:49:24.493Z,100898.68
2019-05-01T19:52:00.530Z,100896.09
2019-05-01T19:54:29.814Z,100896.84
2019-05-01T19:57:00.123Z,100895.84
2019-05-01T19:59:29.971Z,100898.03
2019-05-01T20:01:59.801Z,100895.78
2019-05-01T20:04:29.853Z,100896.92
2019-05-01T20:07:00.092Z,100897.00
2019-05-01T20:09:30.853Z,100899.75
2019-05-01T20:12:02.051Z,100895.81
2019-05-01T20:14:31.827Z,100889.65
2019-05-01T20:17:04.734Z,100894.30
2019-05-01T20:19:33.564Z,100889.56
2019-05-01T20:22:03.382Z,100874.27
2019-05-01T20:24:33.159Z,100883.14
2019-05-01T20:27:03.269Z,100873.61
2019-05-01T20:29:32.878Z,100875.62
2019-05-01T20:32:02.786Z,100870.58
2019-05-01T21:21:31.618Z,100840.79
2019-05-01T21:24:03.553Z,100830.25
2019-05-01T21:26:34.280Z,100828.21
2019-05-01T21:29:04.363Z,100830.78
2019-05-01T21:31:34.255Z,100823.63
2019-05-01T21:34:04.822Z,100816.33
2019-05-01T21:36:37.452Z,100818.61
2019-05-01T21:39:07.207Z,100813.05
2019-05-01T21:41:36.835Z,100808.09
2019-05-01T21:44:07.035Z,100810.89
2019-05-01T21:46:39.114Z,100816.84
2019-05-01T21:49:08.166Z,100806.14
2019-05-01T21:51:42.309Z,100804.79
2019-05-01T21:54:09.813Z,100803.98
2019-05-01T21:56:41.574Z,100793.30
2019-05-01T21:59:11.751Z,100795.34
2019-05-01T22:01:41.748Z,100792.90
2019-05-01T22:04:11.537Z,100788.66
2019-05-01T22:06:41.853Z,100794.28
2019-05-01T22:09:15.217Z,100780.67
2019-05-01T22:11:46.375Z,100789.19
2019-05-01T22:14:20.196Z,100779.35
2019-05-01T22:16:53.197Z,100784.58
2019-05-01T22:19:24.586Z,100777.66
2019-05-01T22:22:02.885Z,100781.08
2019-05-01T22:24:40.650Z,100777.34
2019-05-01T22:27:12.283Z,100777.28
2019-05-01T22:29:43.638Z,100773.89
2019-05-01T22:32:32.350Z,100772.20
2019-05-01T22:35:17.992Z,100772.16
2019-05-01T22:37:48.270Z,100766.78
2019-05-01T22:40:19.785Z,100768.50
2019-05-01T22:42:49.608Z,100769.70
2019-05-01T22:45:23.025Z,100765.76
2019-05-01T22:47:52.777Z,100764.11
2019-05-01T22:50:25.458Z,100761.38
2019-05-01T22:52:55.804Z,100760.70
2019-05-01T22:55:26.749Z,100753.75
2019-05-01T22:57:56.441Z,100752.02
2019-05-01T23:00:30.068Z,100751.89
2019-05-01T23:03:05.571Z,100750.05
2019-05-01T23:05:33.050Z,100740.02
2019-05-01T23:08:04.908Z,100738.33
2019-05-01T23:10:34.687Z,100732.38
2019-05-01T23:13:05.563Z,100740.41
2019-05-01T23:15:35.481Z,100733.48
2019-05-01T23:18:24.571Z,100739.77
2019-05-01T23:20:54.298Z,100729.93
2019-05-01T23:23:24.343Z,100717.69
2019-05-01T23:25:54.051Z,100724.85
2019-05-01T23:28:24.722Z,100710.27
2019-05-01T23:30:55.349Z,100708.72
2019-05-01T23:33:24.959Z,100711.24
2019-05-01T23:35:54.694Z,100708.48
2019-05-01T23:38:24.290Z,100711.58
2019-05-01T23:40:54.068Z,100699.39
2019-05-01T23:43:27.877Z,100699.08
2019-05-01T23:45:55.212Z,100693.28
2019-05-01T23:48:24.819Z,100683.74
2019-05-01T23:50:54.605Z,100687.65
2019-05-01T23:53:24.363Z,100681.34
2019-05-01T23:55:54.541Z,100685.45
2019-05-01T23:58:25.384Z,100675.42
